sensor_id;sensor_type;location;lat;lon;timestamp;temperature;humidity
38854;DHT22;24606;51.992;4.198;2023-07-31T00:02:36;19.20;99.90
38854;DHT22;24606;51.992;4.198;2023-07-31T00:07:38;19.50;99.90
38854;DHT22;24606;51.992;4.198;2023-07-31T00:12:43;19.80;99.90
38854;DHT22;24606;51.992;4.198;2023-07-31T00:17:45;19.50;99.90
38854;DHT22;24606;51.992;4.198;2023-07-31T00:22:48;19.40;99.90
38854;DHT22;24606;51.992;4.198;2023-07-31T00:27:51;19.50;99.90
38854;DHT22;24606;51.992;4.198;2023-07-31T00:32:53;19.60;99.90
38854;DHT22;24606;51.992;4.198;2023-07-31T00:37:57;19.90;99.90
38854;DHT22;24606;51.992;4.198;2023-07-31T00:43:00;19.70;99.90
38854;DHT22;24606;51.992;4.198;2023-07-31T00:48:02;19.90;99.90
38854;DHT22;24606;51.992;4.198;2023-07-31T00:53:05;19.50;99.90
38854;DHT22;24606;51.992;4.198;2023-07-31T00:58:09;20.00;99.90
38854;DHT22;24606;51.992;4.198;2023-07-31T01:03:11;20.30;99.90
38854;DHT22;24606;51.992;4.198;2023-07-31T01:08:18;19.20;99.90
38854;DHT22;24606;51.992;4.198;2023-07-31T01:13:24;19.70;99.90
38854;DHT22;24606;51.992;4.198;2023-07-31T01:18:26;19.70;99.90
38854;DHT22;24606;51.992;4.198;2023-07-31T01:23:51;19.80;99.90
38854;DHT22;24606;51.992;4.198;2023-07-31T01:29:02;19.40;99.90
38854;DHT22;24606;51.992;4.198;2023-07-31T01:34:06;19.70;99.90
38854;DHT22;24606;51.992;4.198;2023-07-31T01:39:09;19.40;99.90
38854;DHT22;24606;51.992;4.198;2023-07-31T01:44:12;19.30;99.90
38854;DHT22;24606;51.992;4.198;2023-07-31T01:49:14;19.40;99.90
38854;DHT22;24606;51.992;4.198;2023-07-31T01:54:16;19.40;99.90
38854;DHT22;24606;51.992;4.198;2023-07-31T01:59:19;18.90;99.90
38854;DHT22;24606;51.992;4.198;2023-07-31T02:04:21;19.40;99.90
38854;DHT22;24606;51.992;4.198;2023-07-31T02:09:23;19.30;99.90
38854;DHT22;24606;51.992;4.198;2023-07-31T02:14:26;20.00;99.90
38854;DHT22;24606;51.992;4.198;2023-07-31T02:19:28;19.70;99.90
38854;DHT22;24606;51.992;4.198;2023-07-31T02:24:30;19.70;99.90
38854;DHT22;24606;51.992;4.198;2023-07-31T02:29:33;19.10;99.90
38854;DHT22;24606;51.992;4.198;2023-07-31T02:34:35;19.50;99.90
38854;DHT22;24606;51.992;4.198;2023-07-31T02:39:37;19.40;99.90
38854;DHT22;24606;51.992;4.198;2023-07-31T02:44:40;19.90;99.90
38854;DHT22;24606;51.992;4.198;2023-07-31T02:49:42;19.30;99.90
38854;DHT22;24606;51.992;4.198;2023-07-31T02:54:45;19.10;99.90
38854;DHT22;24606;51.992;4.198;2023-07-31T03:15:26;19.90;99.90
38854;DHT22;24606;51.992;4.198;2023-07-31T03:20:28;19.40;99.90
38854;DHT22;24606;51.992;4.198;2023-07-31T03:25:30;19.40;99.90
38854;DHT22;24606;51.992;4.198;2023-07-31T03:30:36;19.50;99.90
38854;DHT22;24606;51.992;4.198;2023-07-31T03:35:38;19.10;99.90
38854;DHT22;24606;51.992;4.198;2023-07-31T03:40:40;19.10;99.90
38854;DHT22;24606;51.992;4.198;2023-07-31T03:45:43;19.30;99.90
38854;DHT22;24606;51.992;4.198;2023-07-31T03:50:45;19.70;99.90
38854;DHT22;24606;51.992;4.198;2023-07-31T03:55:47;19.10;99.90
38854;DHT22;24606;51.992;4.198;2023-07-31T04:00:50;18.90;99.90
38854;DHT22;24606;51.992;4.198;2023-07-31T04:05:54;18.70;99.90
38854;DHT22;24606;51.992;4.198;2023-07-31T04:10:56;18.70;99.90
38854;DHT22;24606;51.992;4.198;2023-07-31T04:15:59;18.30;99.90
38854;DHT22;24606;51.992;4.198;2023-07-31T04:21:01;18.90;99.90
38854;DHT22;24606;51.992;4.198;2023-07-31T04:26:03;19.00;99.90
38854;DHT22;24606;51.992;4.198;2023-07-31T04:31:07;19.40;99.90
38854;DHT22;24606;51.992;4.198;2023-07-31T04:36:09;19.20;99.90
38854;DHT22;24606;51.992;4.198;2023-07-31T04:41:11;19.10;99.90
38854;DHT22;24606;51.992;4.198;2023-07-31T04:46:14;19.40;99.90
38854;DHT22;24606;51.992;4.198;2023-07-31T04:51:16;19.50;99.90
38854;DHT22;24606;51.992;4.198;2023-07-31T04:56:18;19.90;99.90
38854;DHT22;24606;51.992;4.198;2023-07-31T05:01:21;20.00;99.90
38854;DHT22;24606;51.992;4.198;2023-07-31T05:06:23;19.60;99.90
38854;DHT22;24606;51.992;4.198;2023-07-31T05:11:24;19.20;99.90
38854;DHT22;24606;51.992;4.198;2023-07-31T05:16:28;20.10;99.90
38854;DHT22;24606;51.992;4.198;2023-07-31T05:21:30;20.20;99.90
38854;DHT22;24606;51.992;4.198;2023-07-31T05:26:31;19.40;99.90
38854;DHT22;24606;51.992;4.198;2023-07-31T05:31:35;18.80;99.90
38854;DHT22;24606;51.992;4.198;2023-07-31T05:36:38;18.80;99.90
38854;DHT22;24606;51.992;4.198;2023-07-31T05:41:40;18.70;99.90
38854;DHT22;24606;51.992;4.198;2023-07-31T05:46:43;18.70;99.90
38854;DHT22;24606;51.992;4.198;2023-07-31T05:51:45;18.90;99.90
38854;DHT22;24606;51.992;4.198;2023-07-31T05:56:48;18.30;99.90
38854;DHT22;24606;51.992;4.198;2023-07-31T06:01:51;18.10;99.90
38854;DHT22;24606;51.992;4.198;2023-07-31T06:06:53;18.40;99.90
38854;DHT22;24606;51.992;4.198;2023-07-31T06:11:55;18.00;99.90
38854;DHT22;24606;51.992;4.198;2023-07-31T06:16:58;18.10;99.90
38854;DHT22;24606;51.992;4.198;2023-07-31T06:22:00;18.20;99.90
38854;DHT22;24606;51.992;4.198;2023-07-31T06:27:02;18.60;99.90
38854;DHT22;24606;51.992;4.198;2023-07-31T06:32:06;18.20;99.90
38854;DHT22;24606;51.992;4.198;2023-07-31T06:37:08;17.90;99.90
38854;DHT22;24606;51.992;4.198;2023-07-31T06:42:10;18.30;99.90
38854;DHT22;24606;51.992;4.198;2023-07-31T06:47:13;18.20;99.90
38854;DHT22;24606;51.992;4.198;2023-07-31T06:52:15;18.70;99.90
38854;DHT22;24606;51.992;4.198;2023-07-31T06:57:17;18.30;99.90
38854;DHT22;24606;51.992;4.198;2023-07-31T07:02:21;18.40;99.90
38854;DHT22;24606;51.992;4.198;2023-07-31T07:07:22;18.30;99.90
38854;DHT22;24606;51.992;4.198;2023-07-31T07:12:24;18.40;99.90
38854;DHT22;24606;51.992;4.198;2023-07-31T07:17:29;18.40;99.90
38854;DHT22;24606;51.992;4.198;2023-07-31T07:22:32;18.70;99.90
38854;DHT22;24606;51.992;4.198;2023-07-31T07:27:34;18.50;99.90
38854;DHT22;24606;51.992;4.198;2023-07-31T07:32:37;18.70;99.90
38854;DHT22;24606;51.992;4.198;2023-07-31T07:37:39;18.50;99.90
38854;DHT22;24606;51.992;4.198;2023-07-31T07:42:40;18.50;99.90
38854;DHT22;24606;51.992;4.198;2023-07-31T07:47:44;18.70;99.90
38854;DHT22;24606;51.992;4.198;2023-07-31T07:52:45;18.50;99.90
38854;DHT22;24606;51.992;4.198;2023-07-31T07:57:47;18.40;99.90
38854;DHT22;24606;51.992;4.198;2023-07-31T08:02:52;18.50;99.90
38854;DHT22;24606;51.992;4.198;2023-07-31T08:07:53;19.00;99.90
38854;DHT22;24606;51.992;4.198;2023-07-31T08:12:55;18.90;99.90
38854;DHT22;24606;51.992;4.198;2023-07-31T08:17:58;18.90;99.90
38854;DHT22;24606;51.992;4.198;2023-07-31T08:23:00;18.90;99.90
38854;DHT22;24606;51.992;4.198;2023-07-31T08:28:02;18.80;99.90
38854;DHT22;24606;51.992;4.198;2023-07-31T08:33:05;19.00;99.90
38854;DHT22;24606;51.992;4.198;2023-07-31T08:38:07;19.10;99.90
38854;DHT22;24606;51.992;4.198;2023-07-31T08:43:09;18.80;99.90
38854;DHT22;24606;51.992;4.198;2023-07-31T08:48:13;18.90;99.90
38854;DHT22;24606;51.992;4.198;2023-07-31T08:53:15;18.90;99.90
38854;DHT22;24606;51.992;4.198;2023-07-31T08:58:18;18.90;99.90
38854;DHT22;24606;51.992;4.198;2023-07-31T09:03:23;19.20;99.90
38854;DHT22;24606;51.992;4.198;2023-07-31T09:08:30;19.20;99.90
38854;DHT22;24606;51.992;4.198;2023-07-31T09:13:33;19.40;99.90
38854;DHT22;24606;51.992;4.198;2023-07-31T09:18:36;19.30;99.90
38854;DHT22;24606;51.992;4.198;2023-07-31T09:23:54;19.50;99.90
38854;DHT22;24606;51.992;4.198;2023-07-31T09:28:56;19.60;99.90
38854;DHT22;24606;51.992;4.198;2023-07-31T09:33:59;19.10;99.90
38854;DHT22;24606;51.992;4.198;2023-07-31T09:39:04;19.40;99.90
38854;DHT22;24606;51.992;4.198;2023-07-31T09:44:06;19.40;99.90
38854;DHT22;24606;51.992;4.198;2023-07-31T09:49:11;19.20;99.90
38854;DHT22;24606;51.992;4.198;2023-07-31T09:54:14;19.50;99.90
38854;DHT22;24606;51.992;4.198;2023-07-31T09:59:18;19.40;99.90
38854;DHT22;24606;51.992;4.198;2023-07-31T10:04:26;19.90;99.90
38854;DHT22;24606;51.992;4.198;2023-07-31T10:09:30;19.80;99.90
38854;DHT22;24606;51.992;4.198;2023-07-31T10:14:33;19.80;99.90
38854;DHT22;24606;51.992;4.198;2023-07-31T10:19:36;19.70;99.90
38854;DHT22;24606;51.992;4.198;2023-07-31T10:24:39;20.00;99.90
38854;DHT22;24606;51.992;4.198;2023-07-31T10:29:41;19.60;99.90
38854;DHT22;24606;51.992;4.198;2023-07-31T10:34:46;19.80;99.90
38854;DHT22;24606;51.992;4.198;2023-07-31T10:39:56;19.90;99.90
38854;DHT22;24606;51.992;4.198;2023-07-31T10:44:59;19.60;99.90
38854;DHT22;24606;51.992;4.198;2023-07-31T10:50:17;20.20;99.90
38854;DHT22;24606;51.992;4.198;2023-07-31T10:55:29;20.30;99.90
38854;DHT22;24606;51.992;4.198;2023-07-31T11:00:31;20.30;99.90
38854;DHT22;24606;51.992;4.198;2023-07-31T11:05:49;20.00;99.90
38854;DHT22;24606;51.992;4.198;2023-07-31T11:11:04;20.60;99.90
38854;DHT22;24606;51.992;4.198;2023-07-31T11:16:07;20.40;99.90
38854;DHT22;24606;51.992;4.198;2023-07-31T11:21:14;20.50;99.90
38854;DHT22;24606;51.992;4.198;2023-07-31T11:26:16;20.60;99.90
38854;DHT22;24606;51.992;4.198;2023-07-31T11:31:18;20.50;99.90
38854;DHT22;24606;51.992;4.198;2023-07-31T11:36:21;20.20;99.90
38854;DHT22;24606;51.992;4.198;2023-07-31T11:41:23;20.30;99.90
38854;DHT22;24606;51.992;4.198;2023-07-31T11:46:25;20.30;99.90
38854;DHT22;24606;51.992;4.198;2023-07-31T11:51:29;20.20;99.90
38854;DHT22;24606;51.992;4.198;2023-07-31T11:56:31;20.20;99.90
38854;DHT22;24606;51.992;4.198;2023-07-31T12:01:33;19.90;99.90
38854;DHT22;24606;51.992;4.198;2023-07-31T12:06:37;19.80;99.90
38854;DHT22;24606;51.992;4.198;2023-07-31T12:11:43;19.90;99.90
38854;DHT22;24606;51.992;4.198;2023-07-31T12:16:45;20.60;99.90
38854;DHT22;24606;51.992;4.198;2023-07-31T12:21:50;20.20;99.90
38854;DHT22;24606;51.992;4.198;2023-07-31T12:26:52;20.60;99.90
38854;DHT22;24606;51.992;4.198;2023-07-31T12:31:55;20.30;99.90
38854;DHT22;24606;51.992;4.198;2023-07-31T12:36:58;20.10;99.90
38854;DHT22;24606;51.992;4.198;2023-07-31T12:42:00;19.70;99.90
38854;DHT22;24606;51.992;4.198;2023-07-31T12:47:02;19.90;99.90
38854;DHT22;24606;51.992;4.198;2023-07-31T12:52:06;19.90;99.90
38854;DHT22;24606;51.992;4.198;2023-07-31T12:57:09;19.30;99.90
38854;DHT22;24606;51.992;4.198;2023-07-31T13:02:11;19.30;99.90
38854;DHT22;24606;51.992;4.198;2023-07-31T13:07:14;19.30;99.90
38854;DHT22;24606;51.992;4.198;2023-07-31T13:12:16;19.30;99.90
38854;DHT22;24606;51.992;4.198;2023-07-31T13:17:18;19.10;99.90
38854;DHT22;24606;51.992;4.198;2023-07-31T13:22:21;19.00;99.90
38854;DHT22;24606;51.992;4.198;2023-07-31T13:27:23;19.30;99.90
38854;DHT22;24606;51.992;4.198;2023-07-31T13:32:25;19.60;99.90
38854;DHT22;24606;51.992;4.198;2023-07-31T13:37:28;19.10;99.90
38854;DHT22;24606;51.992;4.198;2023-07-31T13:42:30;19.20;99.90
38854;DHT22;24606;51.992;4.198;2023-07-31T13:47:31;19.20;99.90
38854;DHT22;24606;51.992;4.198;2023-07-31T13:52:35;19.40;99.90
38854;DHT22;24606;51.992;4.198;2023-07-31T13:57:37;19.30;99.90
38854;DHT22;24606;51.992;4.198;2023-07-31T14:02:39;18.90;99.90
38854;DHT22;24606;51.992;4.198;2023-07-31T14:07:42;18.90;99.90
38854;DHT22;24606;51.992;4.198;2023-07-31T14:12:44;19.10;99.90
38854;DHT22;24606;51.992;4.198;2023-07-31T14:17:46;19.00;99.90
38854;DHT22;24606;51.992;4.198;2023-07-31T14:22:49;19.10;99.90
38854;DHT22;24606;51.992;4.198;2023-07-31T14:27:51;19.00;99.90
38854;DHT22;24606;51.992;4.198;2023-07-31T14:32:53;19.00;99.90
38854;DHT22;24606;51.992;4.198;2023-07-31T14:37:56;19.10;99.90
38854;DHT22;24606;51.992;4.198;2023-07-31T14:42:58;19.10;99.90
38854;DHT22;24606;51.992;4.198;2023-07-31T14:47:59;19.10;99.90
38854;DHT22;24606;51.992;4.198;2023-07-31T14:53:03;18.70;99.90
38854;DHT22;24606;51.992;4.198;2023-07-31T14:58:05;19.10;99.90
38854;DHT22;24606;51.992;4.198;2023-07-31T15:03:07;18.90;99.90
38854;DHT22;24606;51.992;4.198;2023-07-31T15:08:10;19.50;99.90
38854;DHT22;24606;51.992;4.198;2023-07-31T15:13:12;19.30;99.90
38854;DHT22;24606;51.992;4.198;2023-07-31T15:18:14;19.10;99.90
38854;DHT22;24606;51.992;4.198;2023-07-31T15:23:17;19.40;99.90
38854;DHT22;24606;51.992;4.198;2023-07-31T15:28:19;19.50;99.90
38854;DHT22;24606;51.992;4.198;2023-07-31T15:33:21;20.00;99.90
38854;DHT22;24606;51.992;4.198;2023-07-31T15:38:24;19.00;99.90
38854;DHT22;24606;51.992;4.198;2023-07-31T15:43:26;19.10;99.90
38854;DHT22;24606;51.992;4.198;2023-07-31T15:48:28;19.10;99.90
38854;DHT22;24606;51.992;4.198;2023-07-31T15:53:31;19.30;99.90
38854;DHT22;24606;51.992;4.198;2023-07-31T15:58:33;19.30;99.90
38854;DHT22;24606;51.992;4.198;2023-07-31T16:03:35;19.40;99.90
38854;DHT22;24606;51.992;4.198;2023-07-31T16:08:38;19.30;99.90
38854;DHT22;24606;51.992;4.198;2023-07-31T16:13:42;19.30;99.90
38854;DHT22;24606;51.992;4.198;2023-07-31T16:18:43;19.30;99.90
38854;DHT22;24606;51.992;4.198;2023-07-31T16:23:47;18.80;99.90
38854;DHT22;24606;51.992;4.198;2023-07-31T16:28:48;19.30;99.90
38854;DHT22;24606;51.992;4.198;2023-07-31T16:33:50;18.90;99.90
38854;DHT22;24606;51.992;4.198;2023-07-31T16:38:55;19.10;99.90
38854;DHT22;24606;51.992;4.198;2023-07-31T16:43:57;19.30;99.90
38854;DHT22;24606;51.992;4.198;2023-07-31T16:48:59;19.30;99.90
38854;DHT22;24606;51.992;4.198;2023-07-31T16:54:02;19.30;99.90
38854;DHT22;24606;51.992;4.198;2023-07-31T16:59:04;19.40;99.90
38854;DHT22;24606;51.992;4.198;2023-07-31T17:04:06;19.60;99.90
38854;DHT22;24606;51.992;4.198;2023-07-31T17:09:09;19.10;99.90
38854;DHT22;24606;51.992;4.198;2023-07-31T17:14:11;19.50;99.90
38854;DHT22;24606;51.992;4.198;2023-07-31T17:19:13;18.70;99.90
38854;DHT22;24606;51.992;4.198;2023-07-31T17:24:17;18.90;99.90
38854;DHT22;24606;51.992;4.198;2023-07-31T17:29:19;19.00;99.90
38854;DHT22;24606;51.992;4.198;2023-07-31T17:34:20;19.10;99.90
38854;DHT22;24606;51.992;4.198;2023-07-31T17:39:23;19.10;99.90
38854;DHT22;24606;51.992;4.198;2023-07-31T17:44:25;19.10;99.90
38854;DHT22;24606;51.992;4.198;2023-07-31T17:49:27;19.20;99.90
38854;DHT22;24606;51.992;4.198;2023-07-31T17:54:30;19.60;99.90
38854;DHT22;24606;51.992;4.198;2023-07-31T17:59:32;19.30;99.90
38854;DHT22;24606;51.992;4.198;2023-07-31T18:04:34;19.20;99.90
38854;DHT22;24606;51.992;4.198;2023-07-31T18:09:39;19.90;99.90
38854;DHT22;24606;51.992;4.198;2023-07-31T18:14:42;19.70;99.90
38854;DHT22;24606;51.992;4.198;2023-07-31T18:19:44;19.10;99.90
38854;DHT22;24606;51.992;4.198;2023-07-31T18:24:47;19.10;99.90
38854;DHT22;24606;51.992;4.198;2023-07-31T18:29:49;18.60;99.90
38854;DHT22;24606;51.992;4.198;2023-07-31T18:34:51;18.80;99.90
38854;DHT22;24606;51.992;4.198;2023-07-31T18:39:54;18.20;99.90
38854;DHT22;24606;51.992;4.198;2023-07-31T18:44:56;18.60;99.90
38854;DHT22;24606;51.992;4.198;2023-07-31T18:49:58;18.80;99.90
38854;DHT22;24606;51.992;4.198;2023-07-31T18:55:01;19.10;99.90
38854;DHT22;24606;51.992;4.198;2023-07-31T19:00:03;18.50;99.90
38854;DHT22;24606;51.992;4.198;2023-07-31T19:05:05;18.20;99.90
38854;DHT22;24606;51.992;4.198;2023-07-31T19:10:09;18.50;99.90
38854;DHT22;24606;51.992;4.198;2023-07-31T19:15:11;18.90;99.90
38854;DHT22;24606;51.992;4.198;2023-07-31T19:20:13;18.80;99.90
38854;DHT22;24606;51.992;4.198;2023-07-31T19:25:16;19.60;99.90
38854;DHT22;24606;51.992;4.198;2023-07-31T19:30:18;18.50;99.90
38854;DHT22;24606;51.992;4.198;2023-07-31T19:35:22;18.70;99.90
38854;DHT22;24606;51.992;4.198;2023-07-31T19:40:25;18.50;99.90
38854;DHT22;24606;51.992;4.198;2023-07-31T19:45:27;18.20;99.90
38854;DHT22;24606;51.992;4.198;2023-07-31T19:50:30;18.50;99.90
38854;DHT22;24606;51.992;4.198;2023-07-31T19:55:33;18.40;99.90
38854;DHT22;24606;51.992;4.198;2023-07-31T20:00:35;18.00;99.90
38854;DHT22;24606;51.992;4.198;2023-07-31T20:05:37;18.00;99.90
38854;DHT22;24606;51.992;4.198;2023-07-31T20:10:40;18.90;99.90
38854;DHT22;24606;51.992;4.198;2023-07-31T20:15:42;18.40;99.90
38854;DHT22;24606;51.992;4.198;2023-07-31T20:20:44;18.00;99.90
38854;DHT22;24606;51.992;4.198;2023-07-31T20:25:50;18.30;99.90
38854;DHT22;24606;51.992;4.198;2023-07-31T20:30:52;18.40;99.90
38854;DHT22;24606;51.992;4.198;2023-07-31T20:35:54;18.10;99.90
38854;DHT22;24606;51.992;4.198;2023-07-31T20:40:57;18.30;99.90
38854;DHT22;24606;51.992;4.198;2023-07-31T20:45:59;18.20;99.90
38854;DHT22;24606;51.992;4.198;2023-07-31T20:51:01;18.50;99.90
38854;DHT22;24606;51.992;4.198;2023-07-31T20:56:04;19.00;99.90
38854;DHT22;24606;51.992;4.198;2023-07-31T21:01:06;18.70;99.90
38854;DHT22;24606;51.992;4.198;2023-07-31T21:06:10;18.30;99.90
38854;DHT22;24606;51.992;4.198;2023-07-31T21:11:15;17.60;99.90
38854;DHT22;24606;51.992;4.198;2023-07-31T21:16:16;17.60;99.90
38854;DHT22;24606;51.992;4.198;2023-07-31T21:21:18;18.00;99.90
38854;DHT22;24606;51.992;4.198;2023-07-31T21:26:22;18.50;99.90
38854;DHT22;24606;51.992;4.198;2023-07-31T21:31:23;19.80;99.90
38854;DHT22;24606;51.992;4.198;2023-07-31T21:36:25;20.20;99.90
38854;DHT22;24606;51.992;4.198;2023-07-31T21:41:28;20.80;99.90
38854;DHT22;24606;51.992;4.198;2023-07-31T21:46:30;20.40;99.90
38854;DHT22;24606;51.992;4.198;2023-07-31T21:51:32;20.10;99.90
38854;DHT22;24606;51.992;4.198;2023-07-31T21:56:35;19.60;99.90
38854;DHT22;24606;51.992;4.198;2023-07-31T22:01:37;19.00;99.90
38854;DHT22;24606;51.992;4.198;2023-07-31T22:06:39;18.70;99.90
38854;DHT22;24606;51.992;4.198;2023-07-31T22:11:42;19.30;99.90
38854;DHT22;24606;51.992;4.198;2023-07-31T22:16:44;19.40;99.90
38854;DHT22;24606;51.992;4.198;2023-07-31T22:21:46;19.10;99.90
38854;DHT22;24606;51.992;4.198;2023-07-31T22:26:49;19.10;99.90
38854;DHT22;24606;51.992;4.198;2023-07-31T22:31:51;18.90;99.90
38854;DHT22;24606;51.992;4.198;2023-07-31T22:36:53;18.80;99.90
38854;DHT22;24606;51.992;4.198;2023-07-31T22:41:56;17.90;99.90
38854;DHT22;24606;51.992;4.198;2023-07-31T22:46:58;18.00;99.90
38854;DHT22;24606;51.992;4.198;2023-07-31T22:52:00;18.50;99.90
38854;DHT22;24606;51.992;4.198;2023-07-31T22:57:03;18.60;99.90
38854;DHT22;24606;51.992;4.198;2023-07-31T23:02:05;18.70;99.90
38854;DHT22;24606;51.992;4.198;2023-07-31T23:07:08;18.30;99.90
38854;DHT22;24606;51.992;4.198;2023-07-31T23:12:12;17.70;99.90
38854;DHT22;24606;51.992;4.198;2023-07-31T23:17:14;18.00;99.90
38854;DHT22;24606;51.992;4.198;2023-07-31T23:22:16;18.60;99.90
38854;DHT22;24606;51.992;4.198;2023-07-31T23:27:19;18.10;99.90
38854;DHT22;24606;51.992;4.198;2023-07-31T23:32:21;18.40;99.90
38854;DHT22;24606;51.992;4.198;2023-07-31T23:37:23;18.50;99.90
38854;DHT22;24606;51.992;4.198;2023-07-31T23:42:27;18.40;99.90
38854;DHT22;24606;51.992;4.198;2023-07-31T23:47:31;18.30;99.90
38854;DHT22;24606;51.992;4.198;2023-07-31T23:52:32;17.90;99.90
38854;DHT22;24606;51.992;4.198;2023-07-31T23:57:37;18.20;99.90
